createdAt,value
2023-03-13T00:02:27.716Z,101372.75
2023-03-13T00:04:57.909Z,101375.50
2023-03-13T00:07:27.843Z,101376.34
2023-03-13T00:09:57.692Z,101378.00
2023-03-13T00:12:27.952Z,101378.78
2023-03-13T00:14:57.966Z,101377.34
2023-03-13T00:17:27.827Z,101376.56
2023-03-13T00:19:58.115Z,101373.28
2023-03-13T00:22:28.113Z,101375.72
2023-03-13T00:24:57.947Z,101385.34
2023-03-13T00:27:27.811Z,101396.47
2023-03-13T00:29:57.728Z,101397.78
2023-03-13T00:32:27.831Z,101402.19
2023-03-13T00:34:59.285Z,101404.75
2023-03-13T00:37:29.587Z,101403.22
2023-03-13T00:39:59.878Z,101407.63
2023-03-13T00:42:31.233Z,101417.88
2023-03-13T00:45:01.481Z,101408.44
2023-03-13T00:47:31.371Z,101418.66
2023-03-13T00:50:01.494Z,101408.75
2023-03-13T00:52:31.545Z,101416.22
2023-03-13T00:55:19.831Z,101422.34
2023-03-13T00:57:50.240Z,101425.38
2023-03-13T01:00:20.543Z,101424.25
2023-03-13T01:02:51.073Z,101423.97
2023-03-13T01:05:21.104Z,101419.06
2023-03-13T01:07:51.098Z,101409.88
2023-03-13T01:10:21.025Z,101414.59
2023-03-13T01:15:54.678Z,101421.50
2023-03-13T01:18:24.811Z,101415.38
2023-03-13T01:20:55.734Z,101426.16
2023-03-13T01:23:26.192Z,101434.19
2023-03-13T01:25:58.502Z,101443.81
2023-03-13T01:28:29.826Z,101442.38
2023-03-13T01:31:02.442Z,101460.38
2023-03-13T01:33:32.838Z,101466.09
2023-03-13T01:36:06.840Z,101479.06
2023-03-13T01:38:45.986Z,101496.38
2023-03-13T01:41:16.142Z,101492.25
2023-03-13T01:43:47.985Z,101495.13
2023-03-13T01:46:30.914Z,101501.44
2023-03-13T01:49:17.671Z,101503.63
2023-03-13T01:52:09.490Z,101513.22
2023-03-13T01:54:54.701Z,101517.41
2023-03-13T01:57:33.184Z,101521.28
2023-03-13T02:00:14.463Z,101518.31
2023-03-13T02:02:51.714Z,101510.78
2023-03-13T02:05:42.805Z,101515.25
2023-03-13T02:09:07.301Z,101520.69
2023-03-13T02:14:47.237Z,101528.66
2023-03-13T02:17:17.889Z,101524.78
2023-03-13T02:19:56.252Z,101527.34
2023-03-13T02:22:35.480Z,101539.19
2023-03-13T02:25:26.840Z,101555.47
2023-03-13T02:28:16.107Z,101560.13
2023-03-13T02:33:50.354Z,101553.81
2023-03-13T02:36:23.393Z,101555.47
2023-03-13T02:39:01.884Z,101562.09
2023-03-13T02:41:35.850Z,101551.34
2023-03-13T02:44:08.160Z,101554.41
2023-03-13T02:46:54.942Z,101566.50
2023-03-13T02:49:31.304Z,101554.63
2023-03-13T02:52:15.552Z,101551.88
2023-03-13T02:55:09.423Z,101562.63
2023-03-13T02:57:57.800Z,101571.69
2023-03-13T03:00:46.138Z,101572.00
2023-03-13T03:03:16.411Z,101564.84
2023-03-13T03:05:46.564Z,101567.31
2023-03-13T03:08:19.350Z,101562.84
2023-03-13T03:10:49.449Z,101561.47
2023-03-13T03:16:13.099Z,101565.28
2023-03-13T03:18:43.560Z,101568.88
2023-03-13T03:21:31.703Z,101563.03
2023-03-13T03:26:47.164Z,101558.34
2023-03-13T03:32:35.740Z,101542.00
2023-03-13T03:35:24.100Z,101538.66
2023-03-13T03:38:13.880Z,101532.00
2023-03-13T03:43:49.614Z,101523.41
2023-03-13T03:46:38.545Z,101512.38
2023-03-13T03:49:08.696Z,101514.81
2023-03-13T03:51:38.780Z,101512.88
2023-03-13T03:54:09.785Z,101513.41
2023-03-13T03:56:59.312Z,101509.28
2023-03-13T03:59:29.958Z,101504.00
2023-03-13T04:04:50.514Z,101495.41
2023-03-13T04:07:24.396Z,101483.56
2023-03-13T04:09:54.502Z,101477.22
2023-03-13T04:12:30.847Z,101471.91
2023-03-13T04:15:01.187Z,101461.97
2023-03-13T04:17:49.372Z,101460.88
2023-03-13T04:20:22.927Z,101449.53
2023-03-13T04:22:53.114Z,101430.22
2023-03-13T04:25:23.363Z,101431.03
2023-03-13T04:27:55.750Z,101432.38
2023-03-13T04:30:43.906Z,101433.50
2023-03-13T04:33:49.844Z,101418.56
2023-03-13T04:36:32.090Z,101411.09
2023-03-13T04:39:31.507Z,101402.00
2023-03-13T04:42:22.472Z,101401.69
2023-03-13T04:45:15.041Z,101398.09
2023-03-13T04:47:51.369Z,101390.31
2023-03-13T04:50:47.709Z,101384.00
2023-03-13T04:53:23.500Z,101373.75
2023-03-13T04:56:09.597Z,101363.22
2023-03-13T04:58:57.586Z,101372.34
2023-03-13T05:01:46.685Z,101369.25
2023-03-13T05:04:27.763Z,101359.06
2023-03-13T05:09:59.606Z,101357.91
2023-03-13T05:12:35.488Z,101348.81
2023-03-13T05:15:24.516Z,101346.56
2023-03-13T05:18:12.905Z,101337.16
2023-03-13T05:20:49.168Z,101326.09
2023-03-13T05:23:30.406Z,101326.41
2023-03-13T05:32:29.956Z,101300.63
2023-03-13T05:35:18.111Z,101284.38
2023-03-13T05:41:12.400Z,101263.28
2023-03-13T05:44:01.243Z,101264.94
2023-03-13T05:46:49.743Z,101247.22
2023-03-13T05:49:36.760Z,101238.63
2023-03-13T05:52:25.330Z,101243.03
2023-03-13T05:55:08.196Z,101241.09
2023-03-13T06:01:21.879Z,101234.72
2023-03-13T06:06:51.158Z,101225.66
2023-03-13T06:09:39.301Z,101218.16
2023-03-13T06:12:11.354Z,101217.66
2023-03-13T06:14:59.586Z,101216.22
2023-03-13T06:17:47.989Z,101209.25
2023-03-13T06:20:18.615Z,101205.38
2023-03-13T06:22:49.247Z,101197.38
2023-03-13T06:25:19.477Z,101195.13
2023-03-13T06:27:49.509Z,101184.91
2023-03-13T06:33:05.494Z,101177.75
2023-03-13T06:35:56.947Z,101181.81
2023-03-13T06:38:45.368Z,101178.78
2023-03-13T06:41:15.648Z,101176.00
2023-03-13T06:43:45.791Z,101171.59
2023-03-13T06:46:21.658Z,101160.06
2023-03-13T06:49:09.912Z,101142.03
2023-03-13T06:51:39.950Z,101147.25
2023-03-13T06:54:10.079Z,101145.63
2023-03-13T06:56:58.629Z,101142.03
2023-03-13T06:59:47.911Z,101138.97
2023-03-13T07:02:36.177Z,101135.38
2023-03-13T07:05:08.006Z,101125.97
2023-03-13T07:07:56.182Z,101130.34
2023-03-13T07:10:26.342Z,101123.69
2023-03-13T07:12:56.266Z,101117.84
2023-03-13T07:15:26.263Z,101110.41
2023-03-13T07:17:58.767Z,101102.09
2023-03-13T07:20:28.900Z,101096.25
2023-03-13T07:22:59.123Z,101090.72
2023-03-13T07:25:29.128Z,101080.81
2023-03-13T07:27:59.029Z,101076.91
2023-03-13T07:30:30.011Z,101079.69
2023-03-13T07:35:55.858Z,101083.41
2023-03-13T07:38:25.916Z,101070.88
2023-03-13T07:40:58.370Z,101064.56
2023-03-13T07:43:28.859Z,101065.69
2023-03-13T07:46:07.869Z,101070.09
2023-03-13T07:48:40.576Z,101052.69
2023-03-13T07:54:03.018Z,101050.41
2023-03-13T07:56:33.441Z,101044.91
2023-03-13T07:59:03.756Z,101046.84
2023-03-13T08:01:34.139Z,101044.59
2023-03-13T08:04:04.486Z,101053.69
2023-03-13T08:06:53.843Z,101046.53
2023-03-13T08:09:24.622Z,101037.13
2023-03-13T08:12:12.829Z,101039.88
2023-03-13T08:14:43.011Z,101041.00
2023-03-13T08:17:13.109Z,101040.50
2023-03-13T08:20:01.561Z,101034.69
2023-03-13T08:22:31.701Z,101030.59
2023-03-13T08:25:01.600Z,101032.22
2023-03-13T08:27:32.738Z,101028.66
2023-03-13T08:32:48.391Z,101024.56
2023-03-13T08:35:18.633Z,101019.25
2023-03-13T08:37:50.149Z,101014.00
2023-03-13T08:40:20.694Z,101021.66
2023-03-13T08:42:50.714Z,101024.44
2023-03-13T08:45:20.597Z,101017.78
2023-03-13T08:47:55.864Z,101026.06
2023-03-13T08:50:26.022Z,101023.31
2023-03-13T08:52:56.684Z,101017.78
2023-03-13T08:55:26.800Z,101023.81
2023-03-13T08:57:56.722Z,101022.16
2023-03-13T09:00:26.789Z,101022.50
2023-03-13T09:02:56.694Z,101020.22
2023-03-13T09:05:26.847Z,101015.34
2023-03-13T09:07:57.244Z,101022.81
2023-03-13T09:10:27.345Z,101029.16
2023-03-13T09:12:58.186Z,101028.31
2023-03-13T09:15:28.493Z,101039.38
2023-03-13T09:17:59.045Z,101037.75
2023-03-13T09:20:29.092Z,101041.00
2023-03-13T09:22:58.897Z,101039.88
2023-03-13T09:25:28.944Z,101035.97
2023-03-13T09:27:58.762Z,101035.19
2023-03-13T09:30:28.967Z,101034.03
2023-03-13T09:32:59.108Z,101034.03
2023-03-13T09:35:58.509Z,101030.47
2023-03-13T09:38:28.594Z,101044.28
2023-03-13T09:41:06.450Z,101040.38
2023-03-13T09:43:55.003Z,101038.75
2023-03-13T09:46:42.479Z,101037.63
2023-03-13T09:49:30.599Z,101049.00
2023-03-13T09:52:19.910Z,101040.19
2023-03-13T09:54:54.750Z,101045.41
2023-03-13T09:57:43.307Z,101044.59
2023-03-13T10:00:22.263Z,101040.19
2023-03-13T10:03:09.985Z,101045.41
2023-03-13T10:05:47.955Z,101041.00
2023-03-13T10:08:25.354Z,101051.75
2023-03-13T10:11:22.302Z,101047.34
2023-03-13T10:14:14.129Z,101049.00
2023-03-13T10:17:37.064Z,101057.56
2023-03-13T10:20:24.838Z,101056.44
2023-03-13T10:23:14.896Z,101060.03
2023-03-13T10:25:44.890Z,101054.00
2023-03-13T10:28:17.968Z,101054.81
2023-03-13T10:31:05.765Z,101062.31
2023-03-13T10:33:39.402Z,101069.25
2023-03-13T10:36:12.698Z,101076.41
2023-03-13T10:38:57.015Z,101086.66
2023-03-13T10:41:40.597Z,101093.00
2023-03-13T10:44:18.239Z,101097.38
2023-03-13T10:46:50.549Z,101104.03
2023-03-13T10:49:26.276Z,101102.41
2023-03-13T10:51:57.726Z,101085.53
2023-03-13T10:54:32.887Z,101099.00
2023-03-13T10:57:21.286Z,101093.81
2023-03-13T10:59:56.573Z,101115.91
2023-03-13T11:02:29.822Z,101116.22
2023-03-13T11:05:01.961Z,101114.28
2023-03-13T11:07:42.653Z,101110.41
2023-03-13T11:10:19.171Z,101113.16
2023-03-13T11:12:51.480Z,101117.66
2023-03-13T11:15:24.719Z,101119.31
2023-03-13T11:18:06.015Z,101116.88
2023-03-13T11:20:39.075Z,101118.00
2023-03-13T11:23:26.356Z,101119.31
2023-03-13T11:26:18.354Z,101118.81
2023-03-13T11:28:58.131Z,101123.81
2023-03-13T11:31:40.099Z,101121.88
2023-03-13T11:34:34.676Z,101119.63
2023-03-13T11:37:07.318Z,101125.16
2023-03-13T11:39:53.480Z,101125.16
2023-03-13T11:42:44.682Z,101125.78
2023-03-13T11:45:33.178Z,101123.81
2023-03-13T11:48:08.973Z,101125.78
2023-03-13T11:51:01.180Z,101127.09
2023-03-13T11:53:47.736Z,101124.31
2023-03-13T11:56:26.254Z,101125.16
2023-03-13T11:59:11.070Z,101122.69
2023-03-13T12:02:06.580Z,101127.41
2023-03-13T12:04:43.534Z,101129.97
2023-03-13T12:07:24.255Z,101142.34
2023-03-13T12:10:34.469Z,101137.63
2023-03-13T12:13:16.516Z,101141.53
2023-03-13T12:15:54.668Z,101142.34
2023-03-13T12:18:43.242Z,101143.16
2023-03-13T12:21:25.787Z,101144.78
2023-03-13T12:24:36.434Z,101136.00
2023-03-13T12:27:34.987Z,101144.50
2023-03-13T12:30:09.733Z,101145.63
2023-03-13T12:32:43.590Z,101147.25
2023-03-13T12:35:37.194Z,101161.06
2023-03-13T12:38:32.509Z,101154.72
2023-03-13T12:41:30.353Z,101162.19
2023-03-13T12:44:08.749Z,101171.28
2023-03-13T12:46:44.159Z,101176.31
2023-03-13T12:49:48.547Z,101183.78
2023-03-13T12:52:21.486Z,101189.09
2023-03-13T12:55:22.266Z,101191.84
2023-03-13T12:58:10.747Z,101207.31
2023-03-13T13:00:43.933Z,101212.53
2023-03-13T13:03:25.349Z,101213.16
2023-03-13T13:06:10.124Z,101219.19
2023-03-13T13:09:11.601Z,101218.34
2023-03-13T13:11:41.554Z,101210.91
2023-03-13T13:14:31.508Z,101207.63
2023-03-13T13:17:16.259Z,101206.50
2023-03-13T13:19:48.883Z,101196.56
2023-03-13T13:22:39.921Z,101207.31
2023-03-13T13:25:15.753Z,101212.81
2023-03-13T13:27:45.993Z,101208.75
2023-03-13T13:30:22.477Z,101215.91
2023-03-13T13:32:56.460Z,101223.88
2023-03-13T13:36:44.917Z,101229.19
2023-03-13T13:39:48.357Z,101238.69
2023-03-13T13:42:33.789Z,101246.03
2023-03-13T13:45:19.769Z,101246.69
2023-03-13T13:47:51.710Z,101246.81
2023-03-13T13:50:21.771Z,101244.34
2023-03-13T13:52:53.065Z,101247.41
2023-03-13T13:55:29.040Z,101245.34
2023-03-13T13:58:25.394Z,101262.75
2023-03-13T14:01:04.304Z,101255.53
2023-03-13T14:03:36.029Z,101246.81
2023-03-13T14:06:27.198Z,101248.16
2023-03-13T14:09:04.579Z,101260.72
2023-03-13T14:11:41.871Z,101259.13
2023-03-13T14:14:18.804Z,101264.75
2023-03-13T14:16:53.170Z,101261.47
2023-03-13T14:19:40.663Z,101264.09
2023-03-13T14:22:12.962Z,101276.00
2023-03-13T14:24:43.381Z,101273.84
2023-03-13T14:27:21.822Z,101277.53
2023-03-13T14:30:11.346Z,101273.63
2023-03-13T14:32:42.286Z,101278.56
2023-03-13T14:35:13.991Z,101280.19
2023-03-13T14:37:49.660Z,101281.69
2023-03-13T14:40:39.794Z,101285.47
2023-03-13T14:43:40.539Z,101277.81
2023-03-13T14:46:23.331Z,101284.84
2023-03-13T14:48:58.077Z,101276.34
2023-03-13T14:51:31.590Z,101273.91
2023-03-13T14:54:06.559Z,101268.81
2023-03-13T14:56:44.497Z,101262.47
2023-03-13T14:59:21.721Z,101268.31
2023-03-13T15:02:15.371Z,101269.75
2023-03-13T15:04:54.986Z,101270.25
2023-03-13T15:07:27.054Z,101272.69
2023-03-13T15:09:57.270Z,101273.91
2023-03-13T15:12:28.852Z,101271.03
2023-03-13T15:15:00.181Z,101274.78
2023-03-13T15:17:30.663Z,101274.31
2023-03-13T15:20:02.099Z,101270.00
2023-03-13T15:22:35.105Z,101264.06
2023-03-13T15:25:08.137Z,101262.63
2023-03-13T15:27:38.832Z,101259.34
2023-03-13T15:30:12.722Z,101256.59
2023-03-13T15:32:44.796Z,101263.88
2023-03-13T15:35:20.829Z,101257.34
2023-03-13T15:37:50.908Z,101260.53
2023-03-13T15:40:22.195Z,101263.28
2023-03-13T15:42:52.721Z,101256.75
2023-03-13T15:45:23.623Z,101258.19
2023-03-13T15:47:54.088Z,101262.09
2023-03-13T15:50:31.955Z,101257.69
2023-03-13T15:53:03.416Z,101264.34
2023-03-13T15:55:33.958Z,101261.06
2023-03-13T15:58:04.158Z,101255.53
2023-03-13T16:00:34.065Z,101250.00
2023-03-13T16:03:04.286Z,101247.25
2023-03-13T16:05:34.215Z,101250.00
2023-03-13T16:08:04.345Z,101239.81
2023-03-13T16:10:35.246Z,101246.97
2023-03-13T16:13:05.786Z,101235.69
2023-03-13T16:15:38.424Z,101236.22
2023-03-13T16:18:11.391Z,101233.78
2023-03-13T16:20:43.335Z,101231.00
2023-03-13T16:23:13.414Z,101235.50
2023-03-13T16:25:44.876Z,101240.41
2023-03-13T16:28:17.077Z,101229.38
2023-03-13T16:30:49.518Z,101224.97
2023-03-13T16:33:20.117Z,101218.63
2023-03-13T16:35:52.263Z,101221.09
2023-03-13T16:38:23.693Z,101224.66
2023-03-13T16:40:55.016Z,101229.19
2023-03-13T16:43:24.915Z,101223.34
2023-03-13T16:45:55.020Z,101227.22
2023-03-13T16:48:25.677Z,101234.19
2023-03-13T16:50:55.787Z,101230.81
2023-03-13T16:53:25.852Z,101235.84
2023-03-13T16:55:58.761Z,101229.78
2023-03-13T16:58:28.910Z,101233.66
2023-03-13T17:01:05.354Z,101228.13
2023-03-13T17:03:36.431Z,101218.75
2023-03-13T17:06:06.852Z,101224.28
2023-03-13T17:08:37.027Z,101216.91
2023-03-13T17:11:07.538Z,101220.97
2023-03-13T17:13:39.018Z,101219.00
2023-03-13T17:16:24.700Z,101224.84
2023-03-13T17:18:56.264Z,101227.63
2023-03-13T17:21:29.521Z,101221.78
2023-03-13T17:24:01.669Z,101223.22
2023-03-13T17:26:40.468Z,101224.34
2023-03-13T17:29:16.913Z,101210.88
2023-03-13T17:31:47.998Z,101214.44
2023-03-13T17:34:19.048Z,101214.44
2023-03-13T17:36:50.990Z,101208.09
2023-03-13T17:39:23.611Z,101206.75
2023-03-13T17:41:53.934Z,101216.69
2023-03-13T17:44:23.886Z,101209.53
2023-03-13T17:46:54.804Z,101212.50
2023-03-13T17:49:24.927Z,101219.44
2023-03-13T17:51:55.045Z,101212.78
2023-03-13T17:54:25.017Z,101210.88
2023-03-13T17:56:55.366Z,101204.00
2023-03-13T17:59:25.415Z,101204.31
2023-03-13T18:01:55.460Z,101199.94
2023-03-13T18:04:25.428Z,101194.72
2023-03-13T18:06:55.394Z,101185.63
2023-03-13T18:09:25.696Z,101184.19
2023-03-13T18:11:55.784Z,101177.16
2023-03-13T18:14:25.835Z,101166.63
2023-03-13T18:16:59.456Z,101171.53
2023-03-13T18:19:29.674Z,101168.88
2023-03-13T18:21:59.726Z,101165.78
2023-03-13T18:24:29.665Z,101165.59
2023-03-13T18:27:01.189Z,101157.81
2023-03-13T18:29:31.534Z,101149.03
2023-03-13T18:32:05.369Z,101148.22
2023-03-13T18:34:37.210Z,101142.38
2023-03-13T18:37:18.462Z,101147.09
2023-03-13T18:39:48.674Z,101149.03
2023-03-13T18:42:19.254Z,101144.03
2023-03-13T18:44:49.352Z,101146.78
2023-03-13T18:47:21.936Z,101138.84
2023-03-13T18:49:53.124Z,101128.09
2023-03-13T18:52:23.143Z,101135.25
2023-03-13T18:54:52.999Z,101136.88
2023-03-13T18:57:23.805Z,101134.72
2023-03-13T18:59:53.912Z,101137.31
2023-03-13T19:02:23.790Z,101132.59
2023-03-13T19:04:54.218Z,101127.38
2023-03-13T19:07:29.605Z,101124.94
2023-03-13T19:09:59.677Z,101128.84
2023-03-13T19:12:29.731Z,101129.13
2023-03-13T19:14:59.657Z,101121.06
2023-03-13T19:17:31.260Z,101112.28
2023-03-13T19:20:01.252Z,101111.97
2023-03-13T19:22:31.315Z,101115.03
2023-03-13T19:25:01.354Z,101122.66
2023-03-13T19:27:31.594Z,101117.47
2023-03-13T19:30:01.692Z,101109.81
2023-03-13T19:32:31.585Z,101110.66
2023-03-13T19:35:01.484Z,101104.81
2023-03-13T19:37:31.284Z,101103.16
2023-03-13T19:40:01.105Z,101095.50
2023-03-13T19:42:31.041Z,101099.09
2023-03-13T19:45:01.328Z,101097.97
2023-03-13T19:47:31.550Z,101101.84
2023-03-13T19:50:02.671Z,101095.72
2023-03-13T19:52:32.781Z,101096.00
2023-03-13T19:55:05.887Z,101095.72
2023-03-13T19:57:36.676Z,101091.31
2023-03-13T20:00:08.348Z,101090.81
2023-03-13T20:02:42.607Z,101083.34
2023-03-13T20:05:13.072Z,101078.16
2023-03-13T20:07:43.159Z,101074.25
2023-03-13T20:10:13.546Z,101082.53
2023-03-13T20:12:43.564Z,101078.16
2023-03-13T20:15:14.149Z,101078.66
2023-03-13T20:17:50.991Z,101084.19
2023-03-13T20:20:25.858Z,101081.41
2023-03-13T20:22:57.944Z,101087.56
2023-03-13T20:25:30.914Z,101079.78
2023-03-13T20:28:00.929Z,101078.47
2023-03-13T20:30:30.813Z,101076.84
2023-03-13T20:33:00.777Z,101076.00
2023-03-13T20:35:31.203Z,101087.38
2023-03-13T20:38:02.960Z,101079.38
2023-03-13T20:40:36.468Z,101083.47
2023-03-13T20:43:06.581Z,101078.75
2023-03-13T20:45:36.911Z,101081.84
2023-03-13T20:48:07.178Z,101090.41
2023-03-13T20:50:37.381Z,101090.91
2023-03-13T20:53:07.654Z,101084.09
2023-03-13T20:55:40.215Z,101082.47
2023-03-13T20:58:11.133Z,101082.66
2023-03-13T21:00:41.157Z,101075.50
2023-03-13T21:03:11.523Z,101084.09
2023-03-13T21:05:42.455Z,101082.78
2023-03-13T21:08:13.615Z,101082.78
2023-03-13T21:10:44.701Z,101074.78
2023-03-13T21:13:15.046Z,101076.75
2023-03-13T21:15:45.529Z,101082.28
2023-03-13T21:18:15.551Z,101078.38
2023-03-13T21:20:45.447Z,101080.63
2023-03-13T21:23:15.281Z,101080.94
2023-03-13T21:25:45.145Z,101082.88
2023-03-13T21:28:15.363Z,101081.75
2023-03-13T21:30:45.464Z,101083.69
2023-03-13T21:33:16.494Z,101076.53
2023-03-13T21:35:49.063Z,101071.84
2023-03-13T21:38:20.076Z,101071.03
2023-03-13T21:40:50.081Z,101082.06
2023-03-13T21:43:19.973Z,101079.28
2023-03-13T21:45:49.866Z,101079.44
2023-03-13T21:48:19.809Z,101083.50
2023-03-13T21:50:50.234Z,101084.94
2023-03-13T21:53:21.247Z,101083.50
2023-03-13T21:55:53.332Z,101084.63
2023-03-13T21:58:23.371Z,101086.34
2023-03-13T22:00:57.446Z,101094.34
2023-03-13T22:03:31.104Z,101086.06
2023-03-13T22:06:01.703Z,101080.22
2023-03-13T22:08:31.846Z,101074.84
2023-03-13T22:11:02.084Z,101082.81
2023-03-13T22:13:31.935Z,101085.88
2023-03-13T22:16:02.055Z,101080.66
2023-03-13T22:18:35.549Z,101085.38
2023-03-13T22:21:06.010Z,101088.38
2023-03-13T22:23:36.133Z,101097.50
2023-03-13T22:26:07.005Z,101104.69
2023-03-13T22:28:37.472Z,101099.84
2023-03-13T22:31:09.291Z,101107.63
2023-03-13T22:33:39.588Z,101108.94
2023-03-13T22:36:10.783Z,101110.72
2023-03-13T22:38:41.156Z,101122.84
2023-03-13T22:41:14.334Z,101125.28
2023-03-13T22:43:44.380Z,101128.63
2023-03-13T22:46:15.146Z,101127.84
2023-03-13T22:48:45.131Z,101143.53
2023-03-13T22:51:17.183Z,101132.50
2023-03-13T22:53:47.399Z,101129.69
2023-03-13T22:56:17.349Z,101141.72
2023-03-13T22:58:47.645Z,101140.09
2023-03-13T23:02:13.932Z,101142.84
2023-03-13T23:04:44.092Z,101142.63
2023-03-13T23:07:13.983Z,101157.22
2023-03-13T23:09:43.862Z,101167.75
2023-03-13T23:12:14.745Z,101172.13
2023-03-13T23:14:44.769Z,101170.94
2023-03-13T23:17:14.822Z,101180.84
2023-03-13T23:19:44.689Z,101175.31
2023-03-13T23:22:19.857Z,101176.63
2023-03-13T23:24:51.478Z,101182.16
2023-03-13T23:27:21.916Z,101182.16
2023-03-13T23:32:44.585Z,101191.25
2023-03-13T23:35:15.813Z,101192.66
2023-03-13T23:37:49.021Z,101203.41
2023-03-13T23:40:19.458Z,101208.09
2023-03-13T23:42:52.558Z,101213.59
2023-03-13T23:45:22.572Z,101212.47
2023-03-13T23:47:55.223Z,101211.97
2023-03-13T23:50:26.201Z,101218.81
2023-03-13T23:52:57.702Z,101221.34
2023-03-13T23:55:28.064Z,101222.19
2023-03-13T23:57:58.057Z,101219.94
